Time;durP1;ratioP1;P1;durP2;ratioP2;P2;SDS_P1;SDS_P2;PMS_P1;PMS_P2;Temp;Humidity;BMP_temperature;BMP_pressure;BME280_temperature;BME280_humidity;BME280_pressure;Samples;Min_cycle;Max_cycle;Signal;HPM_P1;HPM_P2
2022/08/23 00:02:25;;;;;;;1.03;0.70;;;;;;;15.53;100.00;99053.78;4977566;28;20283;-83
2022/08/23 00:04:53;;;;;;;0.60;0.60;;;;;;;15.49;100.00;99047.22;4973408;28;20236;-83
2022/08/23 00:10:32;;;;;;;0.60;0.60;;;;;;;15.50;100.00;99062.34;5052191;23;20298;-85
2022/08/23 00:12:59;;;;;;;0.60;0.60;;;;;;;15.51;100.00;99055.09;4988692;28;20296;-84
2022/08/23 00:15:26;;;;;;;1.20;0.60;;;;;;;15.51;100.00;99055.91;4995383;28;20236;-83
2022/08/23 00:17:52;;;;;;;0.63;0.50;;;;;;;15.37;100.00;99049.38;4994673;28;20318;-86
2022/08/23 00:20:19;;;;;;;0.80;0.80;;;;;;;15.34;100.00;99060.69;4989211;28;20235;-88
2022/08/23 00:22:46;;;;;;;0.60;0.60;;;;;;;15.35;100.00;99065.03;4985017;28;20238;-88
2022/08/23 00:25:14;;;;;;;0.67;0.50;;;;;;;15.44;100.00;99063.44;4944980;28;20259;-84
2022/08/23 00:30:47;;;;;;;0.60;0.60;;;;;;;15.31;100.00;99056.63;5006594;23;20314;-84
2022/08/23 00:33:14;;;;;;;1.23;0.50;;;;;;;15.30;100.00;99046.91;4968877;28;20603;-88
2022/08/23 00:35:40;;;;;;;1.10;0.40;;;;;;;15.35;100.00;99054.22;4949460;28;20239;-89
2022/08/23 00:38:08;;;;;;;0.40;0.40;;;;;;;15.35;100.00;99049.63;4955038;28;20337;-89
2022/08/23 00:50:01;;;;;;;0.40;0.40;;;;;;;15.59;100.00;99043.78;5144357;23;20236;-83
2022/08/23 00:52:39;;;;;;;0.83;0.40;;;;;;;15.53;100.00;99048.38;4949389;28;20227;-82
2022/08/23 00:55:06;;;;;;;0.33;0.30;;;;;;;15.48;100.00;99044.81;4944096;28;20223;-86
2022/08/23 01:00:23;;;;;;;0.40;0.40;;;;;;;15.62;100.00;99038.69;5938647;23;20246;-83
2022/08/23 01:21:19;;;;;;;0.60;0.33;;;;;;;15.44;100.00;99039.94;6028249;23;20521;-86
2022/08/23 01:23:48;;;;;;;0.40;0.40;;;;;;;15.42;100.00;99038.59;4987496;28;20231;-84
2022/08/23 01:26:18;;;;;;;0.30;0.30;;;;;;;15.38;100.00;99035.63;4973701;28;20219;-84
2022/08/23 01:28:49;;;;;;;0.40;0.40;;;;;;;15.47;100.00;99040.50;4971128;28;20313;-83
2022/08/23 01:34:07;;;;;;;1.17;0.63;;;;;;;15.41;100.00;99035.06;5211206;23;20245;-85
2022/08/23 01:39:36;;;;;;;0.50;0.50;;;;;;;15.43;100.00;99032.13;5541938;23;20266;-83
2022/08/23 01:42:06;;;;;;;0.40;0.40;;;;;;;15.46;100.00;99031.56;4974128;28;20274;-82
2022/08/23 01:44:34;;;;;;;0.30;0.30;;;;;;;15.38;100.00;99027.50;4978608;28;20242;-85
2022/08/23 01:47:01;;;;;;;0.50;0.50;;;;;;;15.42;100.00;99035.88;4971945;28;20246;-84
2022/08/23 01:49:28;;;;;;;0.87;0.70;;;;;;;15.36;100.00;99035.06;4971435;28;20235;-87
2022/08/23 01:51:54;;;;;;;0.50;0.50;;;;;;;15.32;100.00;99030.44;4990551;28;20725;-88
2022/08/23 01:54:21;;;;;;;1.10;0.50;;;;;;;15.33;100.00;99035.59;4972870;28;20327;-90
2022/08/23 01:56:48;;;;;;;0.50;0.50;;;;;;;15.35;100.00;99043.44;4953559;28;20328;-88
2022/08/23 01:59:15;;;;;;;0.50;0.50;;;;;;;15.38;100.00;99041.00;4986956;28;20276;-88
2022/08/23 02:01:46;;;;;;;0.97;0.47;;;;;;;15.34;100.00;99037.22;4970478;28;20243;-88
2022/08/23 02:04:13;;;;;;;0.60;0.60;;;;;;;15.28;100.00;99040.97;4950544;28;20239;-90
2022/08/23 02:06:40;;;;;;;0.70;0.70;;;;;;;15.28;100.00;99034.75;4954499;28;20325;-88
2022/08/23 02:09:09;;;;;;;0.50;0.50;;;;;;;15.40;100.00;99038.84;4944572;28;20239;-88
2022/08/23 02:11:45;;;;;;;0.60;0.60;;;;;;;15.28;100.00;99046.38;4959617;28;20228;-88
2022/08/23 02:14:15;;;;;;;0.60;0.60;;;;;;;15.30;100.00;99040.72;4966742;28;20284;-88
2022/08/23 02:16:54;;;;;;;0.50;0.50;;;;;;;15.29;100.00;99049.88;4958145;28;20682;-89
2022/08/23 02:19:34;;;;;;;0.50;0.50;;;;;;;15.32;100.00;99055.56;4971231;28;20238;-89
2022/08/23 02:22:02;;;;;;;0.40;0.40;;;;;;;15.30;100.00;99049.59;4973298;28;20274;-85
2022/08/23 02:24:30;;;;;;;0.60;0.50;;;;;;;15.41;100.00;99048.56;4955584;28;20606;-88
2022/08/23 02:27:01;;;;;;;0.63;0.50;;;;;;;15.35;100.00;99054.22;4971094;28;20782;-89
2022/08/23 02:29:29;;;;;;;0.40;0.40;;;;;;;15.32;100.00;99060.13;4971528;28;20298;-89
2022/08/23 02:31:59;;;;;;;0.50;0.50;;;;;;;15.32;100.00;99068.22;4959798;28;20231;-89
2022/08/23 02:34:27;;;;;;;0.50;0.50;;;;;;;15.33;100.00;99065.28;4962142;28;20700;-87
2022/08/23 02:36:54;;;;;;;0.47;0.47;;;;;;;15.48;100.00;99071.81;4967839;28;20309;-85
2022/08/23 02:39:21;;;;;;;0.70;0.50;;;;;;;15.40;100.00;99071.22;4962220;28;20250;-87
2022/08/23 02:41:48;;;;;;;0.60;0.60;;;;;;;15.34;100.00;99068.78;4980685;28;20317;-85
2022/08/23 02:44:17;;;;;;;0.93;0.50;;;;;;;15.25;100.00;99065.78;4959221;28;20242;-89
2022/08/23 02:46:44;;;;;;;0.40;0.40;;;;;;;15.22;100.00;99068.19;4959821;28;20232;-88
2022/08/23 02:49:12;;;;;;;0.77;0.50;;;;;;;15.23;100.00;99072.50;4947444;28;20235;-89
2022/08/23 02:51:40;;;;;;;0.73;0.60;;;;;;;15.15;100.00;99083.81;4964359;28;20224;-89
2022/08/23 02:54:07;;;;;;;0.63;0.60;;;;;;;15.15;100.00;99076.53;4965339;28;20238;-88
2022/08/23 02:56:33;;;;;;;1.27;0.70;;;;;;;15.13;100.00;99075.16;4967168;28;20231;-88
2022/08/23 02:59:01;;;;;;;1.63;0.50;;;;;;;15.17;100.00;99073.56;4996994;28;20352;-88
2022/08/23 03:01:31;;;;;;;0.63;0.47;;;;;;;15.18;100.00;99075.19;4978781;28;20231;-88
2022/08/23 03:04:09;;;;;;;1.27;0.60;;;;;;;15.14;100.00;99074.09;4970001;28;20237;-89
2022/08/23 03:06:37;;;;;;;1.20;0.60;;;;;;;15.18;100.00;99075.19;4980598;28;20235;-90
2022/08/23 03:09:04;;;;;;;0.50;0.50;;;;;;;15.11;100.00;99077.31;4980806;28;20326;-88
2022/08/23 03:11:32;;;;;;;1.13;0.70;;;;;;;15.06;100.00;99074.59;5000244;28;20227;-88
2022/08/23 03:14:00;;;;;;;1.47;0.70;;;;;;;15.04;100.00;99071.34;4945281;28;20319;-87
2022/08/23 03:16:27;;;;;;;0.67;0.67;;;;;;;15.02;100.00;99084.28;4983091;28;20290;-88
2022/08/23 03:18:54;;;;;;;1.30;0.80;;;;;;;15.00;100.00;99081.84;4979177;28;20289;-87
2022/08/23 03:21:21;;;;;;;0.60;0.60;;;;;;;15.05;100.00;99081.06;4948538;28;20243;-87
2022/08/23 03:23:48;;;;;;;0.93;0.57;;;;;;;15.13;100.00;99080.56;4998336;28;20237;-88
2022/08/23 03:26:15;;;;;;;1.43;0.70;;;;;;;15.07;100.00;99078.94;4979000;28;20262;-87
2022/08/23 03:28:43;;;;;;;2.30;0.70;;;;;;;15.07;100.00;99078.94;4975306;28;20227;-88
2022/08/23 03:31:12;;;;;;;0.60;0.60;;;;;;;15.16;100.00;99078.16;4948987;28;20315;-88
2022/08/23 03:33:47;;;;;;;0.77;0.60;;;;;;;15.25;100.00;99078.47;4964323;28;20227;-85
2022/08/23 03:36:15;;;;;;;0.90;0.70;;;;;;;15.16;100.00;99082.75;4956870;28;20270;-87
2022/08/23 03:38:44;;;;;;;1.33;0.80;;;;;;;15.14;100.00;99087.59;4982861;28;20294;-87
2022/08/23 03:41:11;;;;;;;1.13;0.80;;;;;;;15.19;100.00;99090.31;4963029;28;20647;-87
2022/08/23 03:43:38;;;;;;;1.20;1.00;;;;;;;15.13;100.00;99088.66;4985289;28;20624;-88
2022/08/23 03:46:07;;;;;;;0.60;0.60;;;;;;;15.20;100.00;99090.06;4977939;28;20239;-86
2022/08/23 03:48:37;;;;;;;0.63;0.63;;;;;;;15.13;100.00;99097.56;4969126;28;20232;-86
2022/08/23 03:51:05;;;;;;;0.70;0.70;;;;;;;15.05;100.00;99094.56;4960481;28;21456;-88
2022/08/23 03:53:32;;;;;;;1.07;0.90;;;;;;;15.03;100.00;99102.06;4948964;28;20232;-90
2022/08/23 03:56:01;;;;;;;0.93;0.80;;;;;;;15.02;100.00;99103.16;4985699;28;20708;-85
2022/08/23 03:58:28;;;;;;;0.87;0.87;;;;;;;15.04;100.00;99104.53;4998031;28;20227;-90
2022/08/23 04:00:56;;;;;;;0.80;0.80;;;;;;;15.01;100.00;99107.75;4946138;28;20231;-89
2022/08/23 04:03:24;;;;;;;1.07;0.90;;;;;;;15.03;100.00;99107.47;4965052;28;20259;-87
2022/08/23 04:06:01;;;;;;;0.80;0.80;;;;;;;15.11;100.00;99115.09;4978863;28;20262;-87
2022/08/23 04:08:29;;;;;;;0.80;0.80;;;;;;;15.08;100.00;99115.59;4977628;28;20228;-89
2022/08/23 04:11:02;;;;;;;1.03;0.90;;;;;;;15.07;100.00;99122.09;4966722;28;20687;-90
2022/08/23 04:13:29;;;;;;;1.00;0.87;;;;;;;15.19;100.00;99122.69;4940661;28;20263;-88
2022/08/23 04:16:02;;;;;;;0.83;0.83;;;;;;;15.15;100.00;99119.72;4950551;28;20299;-89
2022/08/23 04:18:30;;;;;;;1.63;0.90;;;;;;;15.17;100.00;99116.72;4949063;28;20229;-88
2022/08/23 04:20:59;;;;;;;0.80;0.80;;;;;;;15.15;100.00;99111.63;4948480;28;20592;-87
2022/08/23 04:23:26;;;;;;;0.80;0.80;;;;;;;15.18;100.00;99119.19;4947307;28;20238;-89
2022/08/23 04:25:55;;;;;;;0.80;0.80;;;;;;;15.15;100.00;99122.41;4942725;28;20236;-89
2022/08/23 04:28:23;;;;;;;0.90;0.87;;;;;;;15.16;100.00;99115.94;4944189;28;20322;-89
2022/08/23 04:30:50;;;;;;;0.90;0.90;;;;;;;15.20;100.00;99121.63;4977542;28;20314;-90
2022/08/23 04:33:17;;;;;;;0.93;0.90;;;;;;;15.20;100.00;99127.84;4980326;28;20231;-90
2022/08/23 04:35:47;;;;;;;1.03;0.90;;;;;;;15.24;100.00;99131.63;4976780;28;20261;-89
2022/08/23 04:38:14;;;;;;;1.20;1.07;;;;;;;15.26;100.00;99129.47;4977071;28;20232;-89
2022/08/23 04:43:40;;;;;;;1.57;0.90;;;;;;;15.44;100.00;99126.31;4963621;28;20969;-89
2022/08/23 04:46:09;;;;;;;2.07;0.90;;;;;;;15.50;100.00;99115.53;4945309;28;20239;-89
2022/08/23 04:48:36;;;;;;;1.63;0.90;;;;;;;15.60;100.00;99121.84;4958523;28;20227;-89
2022/08/23 04:51:04;;;;;;;0.80;0.80;;;;;;;15.81;100.00;99128.94;4969657;28;20224;-89
2022/08/23 04:53:34;;;;;;;1.23;0.80;;;;;;;15.89;100.00;99134.88;4967794;28;20247;-88
2022/08/23 04:56:19;;;;;;;1.37;1.20;;;;;;;16.00;100.00;99136.56;4963255;28;20246;-88
2022/08/23 04:58:46;;;;;;;1.67;0.80;;;;;;;16.12;100.00;99132.53;4974352;28;20278;-88
2022/08/23 05:01:14;;;;;;;1.43;0.90;;;;;;;16.27;100.00;99132.56;4951585;28;20243;-89
2022/08/23 05:03:44;;;;;;;1.47;0.80;;;;;;;16.34;100.00;99132.28;4972775;28;20257;-89
2022/08/23 05:06:11;;;;;;;0.90;0.90;;;;;;;16.45;100.00;99143.91;4955073;28;20235;-90
2022/08/23 05:08:39;;;;;;;0.90;0.80;;;;;;;16.50;100.00;99141.22;4954425;28;20284;-88
2022/08/23 05:11:09;;;;;;;0.80;0.80;;;;;;;16.55;100.00;99143.94;4957428;28;20718;-89
2022/08/23 05:13:38;;;;;;;0.80;0.80;;;;;;;16.61;100.00;99140.97;4939608;28;20228;-89
2022/08/23 05:16:07;;;;;;;0.80;0.80;;;;;;;16.60;100.00;99150.19;4955738;28;20255;-90
2022/08/23 05:18:38;;;;;;;1.37;1.10;;;;;;;16.61;100.00;99156.41;4961571;28;20235;-89
2022/08/23 05:21:06;;;;;;;1.13;1.10;;;;;;;16.58;100.00;99148.81;4949516;28;20742;-90
2022/08/23 05:23:33;;;;;;;1.10;1.10;;;;;;;16.53;100.00;99155.00;4969536;28;20227;-89
2022/08/23 05:26:03;;;;;;;1.10;1.00;;;;;;;16.52;100.00;99152.56;4960548;28;20722;-88
2022/08/23 05:28:40;;;;;;;2.33;1.23;;;;;;;16.51;100.00;99156.38;4985086;28;20270;-89
2022/08/23 05:31:19;;;;;;;1.17;1.17;;;;;;;16.46;100.00;99161.78;4960128;28;20227;-89
2022/08/23 05:33:50;;;;;;;1.10;1.10;;;;;;;16.36;100.00;99165.28;4953179;28;20246;-89
2022/08/23 05:36:36;;;;;;;1.50;1.40;;;;;;;16.31;100.00;99162.56;4970942;28;20237;-86
2022/08/23 05:39:14;;;;;;;2.20;1.43;;;;;;;16.28;100.00;99171.22;4990954;28;20652;-85
2022/08/23 05:41:55;;;;;;;1.47;1.30;;;;;;;16.29;100.00;99172.81;4975614;28;20231;-84
2022/08/23 05:44:22;;;;;;;1.60;1.50;;;;;;;16.35;100.00;99177.16;4975225;28;20239;-88
2022/08/23 05:46:49;;;;;;;1.43;1.30;;;;;;;16.32;100.00;99183.09;4945461;28;20219;-88
2022/08/23 05:49:24;;;;;;;1.27;1.27;;;;;;;16.34;100.00;99189.03;4960994;28;20294;-88
2022/08/23 05:51:51;;;;;;;1.40;1.30;;;;;;;16.33;100.00;99190.13;4975965;28;20223;-89
2022/08/23 05:54:21;;;;;;;1.27;1.20;;;;;;;16.31;100.00;99184.19;4974635;28;20249;-89
2022/08/23 05:57:04;;;;;;;1.73;1.20;;;;;;;16.33;100.00;99189.31;4945742;28;20231;-88
2022/08/23 05:59:30;;;;;;;1.10;1.10;;;;;;;16.40;100.00;99187.97;4992391;28;20219;-87
2022/08/23 06:01:57;;;;;;;1.23;1.13;;;;;;;16.41;100.00;99188.78;4979060;28;20895;-88
2022/08/23 06:04:24;;;;;;;1.30;1.23;;;;;;;16.45;100.00;99198.00;4976900;28;20286;-87
2022/08/23 06:06:51;;;;;;;1.43;1.20;;;;;;;16.44;100.00;99199.06;4976959;28;20235;-88
2022/08/23 06:09:18;;;;;;;1.30;1.20;;;;;;;16.44;100.00;99199.88;4980552;28;20236;-86
2022/08/23 06:11:46;;;;;;;1.07;1.07;;;;;;;16.44;100.00;99197.16;4963834;28;20228;-86
2022/08/23 06:14:14;;;;;;;1.87;1.30;;;;;;;16.45;100.00;99196.09;4960093;28;20242;-88
2022/08/23 06:16:45;;;;;;;1.83;1.20;;;;;;;16.36;100.00;99200.41;4945889;28;20251;-86
2022/08/23 06:19:16;;;;;;;1.10;1.10;;;;;;;16.38;100.00;99197.44;4966617;28;20282;-87
2022/08/23 06:21:46;;;;;;;1.40;1.30;;;;;;;16.46;100.00;99200.44;4960048;28;20231;-88
2022/08/23 06:24:17;;;;;;;1.30;1.30;;;;;;;16.45;100.00;99200.69;4960636;28;20227;-89
2022/08/23 06:26:57;;;;;;;1.33;1.23;;;;;;;16.51;100.00;99200.44;4962576;28;20243;-89
2022/08/23 06:29:23;;;;;;;1.37;1.13;;;;;;;16.48;100.00;99206.38;4984247;28;20235;-90
2022/08/23 06:32:10;;;;;;;1.23;1.20;;;;;;;16.50;100.00;99206.13;4981496;28;20227;-89
2022/08/23 06:34:44;;;;;;;1.23;1.20;;;;;;;16.52;100.00;99202.03;4948333;28;20341;-89
2022/08/23 06:37:24;;;;;;;1.90;1.10;;;;;;;16.67;100.00;99206.69;4968961;28;20227;-89
2022/08/23 06:40:27;;;;;;;1.30;1.20;;;;;;;16.86;100.00;99202.38;4927455;29;20236;-88
2022/08/23 06:43:17;;;;;;;1.30;1.20;;;;;;;16.92;100.00;99189.66;4965350;28;20239;-85
2022/08/23 06:45:52;;;;;;;1.33;1.10;;;;;;;17.11;100.00;99202.38;4977051;28;20227;-89
2022/08/23 06:48:24;;;;;;;1.00;1.00;;;;;;;17.27;100.00;99205.03;4972096;28;20235;-88
2022/08/23 06:50:50;;;;;;;0.90;0.90;;;;;;;17.35;100.00;99207.22;4999846;28;20267;-89
2022/08/23 06:53:44;;;;;;;1.20;1.00;;;;;;;17.45;100.00;99207.19;4982872;28;20231;-90
2022/08/23 06:56:42;;;;;;;0.80;0.80;;;;;;;17.57;100.00;99207.69;4929168;28;20230;-90
2022/08/23 06:59:19;;;;;;;0.83;0.83;;;;;;;17.81;100.00;99203.31;4970929;28;20235;-88
2022/08/23 07:02:02;;;;;;;0.80;0.80;;;;;;;18.06;100.00;99196.97;4975753;28;20992;-89
2022/08/23 07:04:55;;;;;;;0.80;0.80;;;;;;;18.48;100.00;99205.41;4976194;28;20240;-89
2022/08/23 07:07:35;;;;;;;0.67;0.67;;;;;;;18.73;100.00;99195.50;4954470;28;20272;-89
2022/08/23 07:10:12;;;;;;;0.93;0.80;;;;;;;19.03;100.00;99203.41;4969710;28;20258;-89
2022/08/23 07:12:41;;;;;;;0.70;0.70;;;;;;;19.27;100.00;99203.47;4969373;28;20314;-88
2022/08/23 07:15:10;;;;;;;0.90;0.60;;;;;;;19.64;100.00;99203.63;4969376;28;20271;-87
2022/08/23 07:17:37;;;;;;;0.67;0.40;;;;;;;19.93;100.00;99206.28;4967374;28;20279;-89
2022/08/23 07:20:04;;;;;;;0.60;0.60;;;;;;;20.37;100.00;99203.28;4968751;28;20245;-89
2022/08/23 07:22:33;;;;;;;0.90;0.67;;;;;;;20.93;100.00;99196.97;4958295;28;20236;-88
2022/08/23 07:25:02;;;;;;;0.70;0.70;;;;;;;21.35;100.00;99204.19;4980582;28;20237;-87
2022/08/23 07:27:30;;;;;;;1.27;0.63;;;;;;;21.23;100.00;99201.13;4985785;28;20321;-87
2022/08/23 07:30:04;;;;;;;0.50;0.50;;;;;;;21.43;100.00;99204.28;4984887;28;20227;-88
2022/08/23 07:32:31;;;;;;;0.50;0.47;;;;;;;21.62;100.00;99203.38;4977170;28;20235;-88
2022/08/23 07:35:06;;;;;;;0.47;0.47;;;;;;;21.28;100.00;99207.28;4960407;28;20234;-84
2022/08/23 07:37:36;;;;;;;0.40;0.40;;;;;;;21.02;100.00;99211.53;4971303;28;20784;-85
2022/08/23 07:40:06;;;;;;;0.40;0.40;;;;;;;21.01;100.00;99213.44;4968728;28;20282;-84
2022/08/23 07:42:33;;;;;;;0.40;0.40;;;;;;;21.00;100.00;99219.97;4972025;28;20702;-84
2022/08/23 07:45:01;;;;;;;0.97;0.40;;;;;;;20.92;100.00;99223.41;4992631;28;20228;-83
2022/08/23 07:47:31;;;;;;;0.67;0.50;;;;;;;20.94;100.00;99212.22;4959006;28;20324;-84
2022/08/23 07:49:58;;;;;;;0.40;0.40;;;;;;;20.66;100.00;99205.84;4960915;28;20261;-84
2022/08/23 07:52:26;;;;;;;0.40;0.40;;;;;;;20.72;100.00;99212.03;4973949;28;20698;-85
2022/08/23 07:54:53;;;;;;;0.47;0.47;;;;;;;21.13;100.00;99214.91;4960094;28;20213;-87
2022/08/23 07:57:40;;;;;;;0.30;0.30;;;;;;;21.20;100.00;99210.69;4977078;28;20232;-87
2022/08/23 08:00:15;;;;;;;0.37;0.37;;;;;;;21.19;100.00;99208.25;4975093;28;20234;-86
2022/08/23 08:02:51;;;;;;;2.73;0.70;;;;;;;21.33;100.00;99209.09;4976816;28;20652;-86
2022/08/23 08:05:26;;;;;;;0.53;0.30;;;;;;;21.33;100.00;99204.47;4978315;28;20236;-86
2022/08/23 08:07:54;;;;;;;0.30;0.30;;;;;;;21.50;100.00;99206.63;4978541;28;20227;-84
2022/08/23 08:10:21;;;;;;;0.50;0.30;;;;;;;22.12;100.00;99207.84;4988506;28;20769;-82
2022/08/23 08:12:48;;;;;;;0.30;0.30;;;;;;;21.87;100.00;99211.91;4973667;28;20253;-81
2022/08/23 08:15:18;;;;;;;1.50;0.33;;;;;;;22.05;100.00;99221.09;4989945;28;20237;-84
2022/08/23 08:17:51;;;;;;;0.20;0.20;;;;;;;22.47;96.31;99227.28;4971112;28;20261;-84
2022/08/23 08:20:19;;;;;;;0.30;0.30;;;;;;;22.65;96.29;99231.78;4992630;28;20229;-83
2022/08/23 08:22:46;;;;;;;0.40;0.40;;;;;;;22.01;100.00;99236.47;4975392;28;20247;-84
2022/08/23 08:25:40;;;;;;;0.30;0.30;;;;;;;22.39;100.00;99240.56;4979803;28;20241;-83
2022/08/23 08:28:08;;;;;;;0.83;0.30;;;;;;;21.87;100.00;99241.88;4977536;28;20241;-84
2022/08/23 08:30:41;;;;;;;2.43;0.30;;;;;;;21.84;100.00;99244.38;4977663;28;20230;-85
2022/08/23 08:33:08;;;;;;;0.37;0.37;;;;;;;21.76;100.00;99251.38;4980182;28;20260;-85
2022/08/23 08:35:35;;;;;;;0.20;0.20;;;;;;;21.50;100.00;99250.22;4974504;28;20257;-85
2022/08/23 08:38:02;;;;;;;0.60;0.30;;;;;;;21.46;100.00;99260.13;4979759;28;20219;-85
2022/08/23 08:40:33;;;;;;;0.30;0.20;;;;;;;21.30;100.00;99266.94;4975012;28;20239;-85
2022/08/23 08:43:06;;;;;;;0.23;0.23;;;;;;;21.01;100.00;99270.63;4959901;28;20255;-83
2022/08/23 08:46:01;;;;;;;0.20;0.20;;;;;;;20.43;100.00;99278.31;4961449;28;20244;-86
2022/08/23 08:48:29;;;;;;;0.37;0.30;;;;;;;20.31;100.00;99286.06;4960353;28;20231;-85
2022/08/23 08:51:03;;;;;;;0.20;0.20;;;;;;;20.14;100.00;99285.69;4978065;28;20958;-84
2022/08/23 08:53:39;;;;;;;0.30;0.30;;;;;;;19.95;100.00;99288.38;4958925;28;20232;-85
2022/08/23 08:56:33;;;;;;;0.80;0.20;;;;;;;19.94;100.00;99297.63;4972631;28;20242;-87
2022/08/23 08:59:17;;;;;;;0.97;0.30;;;;;;;19.91;100.00;99295.47;4943198;28;20235;-84
2022/08/23 09:01:46;;;;;;;1.90;0.40;;;;;;;19.98;100.00;99298.66;4957342;28;20287;-84
2022/08/23 09:04:21;;;;;;;0.33;0.20;;;;;;;20.06;100.00;99292.56;4978016;28;20262;-85
2022/08/23 09:07:06;;;;;;;0.77;0.30;;;;;;;20.19;100.00;99297.34;4973794;28;20724;-85
2022/08/23 09:10:06;;;;;;;1.43;0.37;;;;;;;20.32;100.00;99300.47;4958208;28;20801;-87
2022/08/23 09:12:57;;;;;;;0.30;0.30;;;;;;;20.47;100.00;99297.56;4941861;28;20234;-86
2022/08/23 09:15:54;;;;;;;0.30;0.30;;;;;;;20.64;100.00;99300.59;4995537;28;20236;-85
2022/08/23 09:18:23;;;;;;;0.40;0.40;;;;;;;20.72;100.00;99297.19;4973508;28;20245;-84
2022/08/23 09:20:53;;;;;;;0.63;0.40;;;;;;;21.06;100.00;99305.16;4972187;28;20311;-84
2022/08/23 09:23:25;;;;;;;0.40;0.40;;;;;;;21.31;100.00;99302.06;4979626;28;20230;-83
2022/08/23 09:26:00;;;;;;;0.97;0.50;;;;;;;21.36;100.00;99301.97;4964977;28;20276;-84
2022/08/23 09:28:36;;;;;;;0.40;0.40;;;;;;;21.46;100.00;99304.50;4962387;28;20242;-81
2022/08/23 09:31:04;;;;;;;1.07;0.50;;;;;;;21.48;100.00;99309.66;4991681;28;20235;-83
2022/08/23 09:33:39;;;;;;;0.63;0.33;;;;;;;21.50;100.00;99323.81;4970266;28;20612;-83
2022/08/23 09:36:22;;;;;;;0.50;0.50;;;;;;;21.33;100.00;99320.81;4965673;28;20282;-85
2022/08/23 09:38:56;;;;;;;0.50;0.50;;;;;;;20.96;100.00;99322.44;4966516;28;20586;-85
2022/08/23 09:41:31;;;;;;;0.57;0.57;;;;;;;20.90;100.00;99323.63;4972228;28;20243;-84
2022/08/23 09:44:01;;;;;;;0.60;0.60;;;;;;;20.82;100.00;99321.56;4974965;28;20234;-85
2022/08/23 09:46:36;;;;;;;0.70;0.70;;;;;;;20.64;100.00;99327.81;4975004;28;20339;-84
2022/08/23 09:49:21;;;;;;;2.67;0.70;;;;;;;20.32;100.00;99328.50;4959084;28;20340;-85
2022/08/23 09:51:49;;;;;;;0.83;0.77;;;;;;;20.52;100.00;99328.25;4977449;28;20288;-84
2022/08/23 09:54:33;;;;;;;0.80;0.63;;;;;;;20.41;100.00;99326.75;4962620;28;20235;-85
2022/08/23 09:57:05;;;;;;;1.10;0.80;;;;;;;20.51;100.00;99336.69;4957287;28;20229;-85
2022/08/23 09:59:38;;;;;;;1.23;0.73;;;;;;;20.73;100.00;99336.94;4979127;28;20254;-86
2022/08/23 10:02:25;;;;;;;0.93;0.87;;;;;;;20.57;100.00;99349.16;4973740;28;20226;-87
2022/08/23 10:04:55;;;;;;;1.00;1.00;;;;;;;20.45;100.00;99349.53;4952411;28;20748;-85
2022/08/23 10:07:37;;;;;;;1.03;1.00;;;;;;;20.58;100.00;99346.09;4973472;28;20237;-86
2022/08/23 10:10:15;;;;;;;1.10;1.10;;;;;;;20.29;100.00;99345.38;4974970;28;20250;-84
2022/08/23 10:12:43;;;;;;;1.10;1.10;;;;;;;20.33;100.00;99348.34;4977830;28;20239;-86
2022/08/23 10:15:13;;;;;;;1.17;1.10;;;;;;;20.32;100.00;99342.09;4959836;28;20238;-84
2022/08/23 10:17:51;;;;;;;1.10;1.10;;;;;;;20.20;100.00;99345.16;4964534;28;20325;-85
2022/08/23 10:20:36;;;;;;;1.20;1.10;;;;;;;20.26;100.00;99342.41;4986604;28;20242;-85
2022/08/23 10:23:44;;;;;;;1.80;1.20;;;;;;;20.36;100.00;99342.31;4972957;28;20237;-85
2022/08/23 10:26:24;;;;;;;1.20;1.03;;;;;;;20.27;100.00;99350.28;4912780;29;20241;-86
2022/08/23 10:32:14;;;;;;;1.20;1.20;;;;;;;20.47;100.00;99357.44;4979027;28;20660;-83
2022/08/23 10:35:18;;;;;;;1.20;1.10;;;;;;;20.58;100.00;99359.72;4979701;28;20234;-85
2022/08/23 10:38:10;;;;;;;1.47;1.33;;;;;;;20.67;100.00;99362.59;4959662;28;20231;-85
2022/08/23 10:40:42;;;;;;;1.30;1.20;;;;;;;21.14;95.99;99353.53;4993050;28;20234;-85
2022/08/23 10:43:49;;;;;;;1.13;1.00;;;;;;;21.35;96.42;99360.31;4979076;28;20260;-86
2022/08/23 10:46:19;;;;;;;1.30;1.20;;;;;;;22.21;83.95;99360.75;4920589;29;20232;-85
2022/08/23 10:48:50;;;;;;;1.17;1.10;;;;;;;22.40;82.16;99351.34;4955158;28;20271;-84
2022/08/23 10:51:17;;;;;;;1.20;1.10;;;;;;;22.74;81.23;99358.31;4975920;28;20241;-85
2022/08/23 10:54:05;;;;;;;1.50;1.40;;;;;;;22.89;78.01;99354.44;4983712;28;20230;-84
2022/08/23 10:56:33;;;;;;;2.43;1.30;;;;;;;22.92;75.29;99348.38;4965126;28;20242;-85
2022/08/23 10:59:10;;;;;;;2.27;1.40;;;;;;;21.95;83.89;99352.22;4991000;28;20332;-87
2022/08/23 11:01:48;;;;;;;1.40;1.10;;;;;;;22.49;80.88;99345.97;4963977;28;20230;-86
2022/08/23 11:04:46;;;;;;;1.30;1.00;;;;;;;22.00;81.36;99335.75;4972708;28;20237;-86
2022/08/23 11:07:42;;;;;;;1.20;1.10;;;;;;;22.46;80.54;99340.31;4977872;28;20238;-85
2022/08/23 11:10:24;;;;;;;1.60;1.00;;;;;;;22.80;73.48;99338.78;4962362;28;20233;-86
2022/08/23 11:12:54;;;;;;;1.03;0.93;;;;;;;22.91;76.04;99342.09;4975490;28;20227;-85
2022/08/23 11:15:43;;;;;;;0.88;0.88;;;;;;;22.99;72.20;99340.56;4964838;28;20321;-85
2022/08/23 11:18:33;;;;;;;1.00;0.90;;;;;;;22.96;73.64;99336.50;4975313;28;20245;-86
2022/08/23 11:21:32;;;;;;;1.63;1.10;;;;;;;23.31;71.96;99318.50;4999690;28;20719;-85
2022/08/23 11:24:03;;;;;;;0.80;0.80;;;;;;;23.24;72.96;99338.03;4966517;28;20265;-85
2022/08/23 11:26:38;;;;;;;1.37;1.17;;;;;;;23.39;70.89;99336.06;4975216;28;20301;-86
2022/08/23 11:29:07;;;;;;;0.88;0.88;;;;;;;23.61;70.47;99345.09;4975069;28;20235;-86
2022/08/23 11:31:47;;;;;;;0.90;0.90;;;;;;;23.16;72.67;99343.44;4979610;28;20245;-85
2022/08/23 11:34:20;;;;;;;1.10;1.00;;;;;;;23.33;73.07;99340.84;4961516;28;20233;-86
2022/08/23 11:37:18;;;;;;;0.80;0.80;;;;;;;23.31;71.78;99337.63;4978190;28;20238;-86
2022/08/23 11:39:58;;;;;;;0.85;0.85;;;;;;;23.06;73.82;99343.66;4976286;28;20792;-84
2022/08/23 11:42:37;;;;;;;0.75;0.75;;;;;;;22.62;75.45;99336.97;4990786;28;20263;-86
2022/08/23 11:45:42;;;;;;;0.80;0.80;;;;;;;22.93;74.57;99337.13;4989568;28;20242;-85
2022/08/23 11:48:35;;;;;;;0.68;0.68;;;;;;;23.14;74.13;99337.50;4963448;28;20314;-85
2022/08/23 11:51:15;;;;;;;0.73;0.73;;;;;;;23.05;73.32;99334.66;4992144;28;20223;-85
2022/08/23 11:53:53;;;;;;;1.20;0.80;;;;;;;22.96;72.41;99338.44;4977227;28;20323;-85
2022/08/23 11:56:35;;;;;;;0.80;0.80;;;;;;;22.60;77.73;99349.31;4991246;28;20678;-86
2022/08/23 11:59:17;;;;;;;0.80;0.80;;;;;;;22.71;74.67;99348.81;4978190;28;20233;-85
2022/08/23 12:01:45;;;;;;;0.60;0.60;;;;;;;22.78;74.24;99345.66;4996335;28;20287;-85
2022/08/23 12:04:36;;;;;;;0.70;0.70;;;;;;;22.59;75.43;99353.94;4959932;28;20226;-85
2022/08/23 12:07:11;;;;;;;1.73;0.70;;;;;;;22.84;74.09;99352.63;4959838;28;20221;-84
2022/08/23 12:09:40;;;;;;;1.10;0.87;;;;;;;22.20;76.71;99364.59;4990817;28;20228;-87
2022/08/23 12:12:29;;;;;;;0.60;0.60;;;;;;;22.46;78.64;99354.78;4989748;28;20329;-86
2022/08/23 12:15:08;;;;;;;0.60;0.60;;;;;;;22.77;76.46;99363.97;4988790;28;21002;-85
2022/08/23 12:17:38;;;;;;;0.80;0.80;;;;;;;22.72;74.69;99369.53;4988909;28;20241;-86
2022/08/23 12:20:10;;;;;;;0.70;0.70;;;;;;;23.11;74.21;99371.69;4991694;28;20271;-86
2022/08/23 12:22:58;;;;;;;1.07;0.70;;;;;;;22.89;73.69;99363.47;4971734;28;20252;-86
2022/08/23 12:25:25;;;;;;;1.60;0.70;;;;;;;23.08;74.65;99368.78;4989511;28;20282;-85
2022/08/23 12:27:58;;;;;;;0.80;0.80;;;;;;;23.29;75.54;99361.72;4947419;28;20667;-86
2022/08/23 12:30:32;;;;;;;0.70;0.70;;;;;;;23.43;72.25;99351.53;4977896;28;20241;-85
2022/08/23 12:33:10;;;;;;;1.08;0.80;;;;;;;24.07;69.42;99343.91;4959185;28;20235;-85
2022/08/23 12:36:06;;;;;;;0.70;0.70;;;;;;;24.16;68.49;99343.94;4974751;28;20741;-86
2022/08/23 12:39:06;;;;;;;0.80;0.80;;;;;;;24.45;64.58;99352.47;4991678;28;20706;-85
2022/08/23 12:41:52;;;;;;;0.95;0.70;;;;;;;23.99;66.30;99333.72;4961625;28;20237;-86
2022/08/23 12:44:22;;;;;;;0.60;0.60;;;;;;;23.96;66.83;99337.09;4978518;28;20250;-84
2022/08/23 12:46:49;;;;;;;0.60;0.60;;;;;;;24.02;66.37;99341.31;4978627;28;20231;-85